Time;durP1;ratioP1;P1;durP2;ratioP2;P2;SDS_P1;SDS_P2;PMS_P1;PMS_P2;Temp;Humidity;BMP_temperature;BMP_pressure;BME280_temperature;BME280_humidity;BME280_pressure;Samples;Min_cycle;Max_cycle;Signal;HPM_P1;HPM_P2
2022/06/22 00:01:45;;;;;;;16.75;8.85;;;13.80;99.90;;;;;;5116348;28;20174;-61
2022/06/22 00:04:28;;;;;;;17.77;8.52;;;13.60;99.90;;;;;;5116315;28;20043;-62
2022/06/22 00:07:02;;;;;;;15.35;8.18;;;13.80;99.90;;;;;;5098006;28;20039;-62
2022/06/22 00:09:35;;;;;;;15.82;8.25;;;13.80;99.90;;;;;;5098398;28;20501;-62
2022/06/22 00:12:02;;;;;;;17.17;8.27;;;13.80;99.90;;;;;;5116315;28;20329;-61
2022/06/22 00:14:46;;;;;;;16.38;8.52;;;13.90;99.90;;;;;;5115975;28;20099;-62
2022/06/22 00:17:21;;;;;;;16.25;7.72;;;14.20;99.90;;;;;;5116051;28;20047;-62
2022/06/22 00:19:48;;;;;;;14.65;7.50;;;13.80;99.90;;;;;;5097760;28;20062;-62
2022/06/22 00:22:23;;;;;;;14.77;7.72;;;13.60;99.90;;;;;;5116164;28;20175;-64
2022/06/22 00:25:12;;;;;;;13.27;7.32;;;13.80;99.90;;;;;;5116083;28;20044;-62
2022/06/22 00:27:38;;;;;;;15.95;7.15;;;13.60;99.90;;;;;;5115858;28;20452;-62
2022/06/22 00:30:27;;;;;;;12.38;6.70;;;13.70;99.90;;;;;;5116195;28;20051;-62
2022/06/22 00:32:59;;;;;;;11.50;6.28;;;13.60;99.90;;;;;;5097581;28;20536;-62
2022/06/22 00:35:43;;;;;;;13.05;6.90;;;13.40;99.90;;;;;;5115688;28;20413;-62
2022/06/22 00:38:20;;;;;;;14.60;6.80;;;14.20;99.90;;;;;;5115587;28;20045;-62
2022/06/22 00:40:50;;;;;;;12.85;6.57;;;14.20;99.90;;;;;;5097291;28;20521;-62
2022/06/22 00:43:17;;;;;;;12.48;6.47;;;13.30;99.90;;;;;;5115571;28;20043;-62
2022/06/22 00:45:43;;;;;;;13.02;6.90;;;13.40;99.90;;;;;;5097296;28;20079;-62
2022/06/22 00:48:42;;;;;;;15.50;7.30;;;13.90;99.90;;;;;;5115480;28;20043;-62
2022/06/22 00:51:14;;;;;;;15.95;7.05;;;13.40;99.90;;;;;;5070794;28;20491;-62
2022/06/22 00:53:45;;;;;;;12.23;6.82;;;12.90;99.90;;;;;;5115509;28;20096;-62
2022/06/22 00:56:22;;;;;;;11.52;6.50;;;13.10;99.90;;;;;;5104300;28;20044;-61
2022/06/22 01:02:09;;;;;;;12.65;6.55;;;13.00;99.90;;;;;;5234095;22;20059;-75
2022/06/22 01:04:50;;;;;;;10.55;6.70;;;13.20;99.90;;;;;;5076829;28;20144;-75
2022/06/22 01:07:28;;;;;;;11.43;6.35;;;12.80;99.90;;;;;;5059581;28;20052;-75
2022/06/22 01:10:07;;;;;;;12.45;6.47;;;13.10;99.90;;;;;;5094962;28;20048;-75
2022/06/22 01:13:00;;;;;;;11.13;6.40;;;13.20;99.90;;;;;;5076797;28;20052;-76
2022/06/22 01:15:46;;;;;;;14.55;6.55;;;12.60;99.90;;;;;;5059865;28;20052;-76
2022/06/22 01:18:46;;;;;;;15.02;6.85;;;12.30;99.90;;;;;;5095106;28;20047;-75
2022/06/22 01:21:22;;;;;;;12.55;7.00;;;12.70;99.90;;;;;;5014093;28;20049;-75
2022/06/22 01:23:48;;;;;;;12.60;7.22;;;;;;;;;;5056239;28;20049;-76
2022/06/22 01:26:38;;;;;;;13.35;7.13;;;12.60;99.90;;;;;;5055466;28;20049;-76
2022/06/22 01:29:14;;;;;;;10.35;7.00;;;12.30;99.90;;;;;;5056136;28;20546;-76
2022/06/22 01:32:00;;;;;;;14.55;7.00;;;12.30;99.90;;;;;;5074595;28;20053;-76
2022/06/22 01:34:38;;;;;;;11.95;6.53;;;12.30;99.90;;;;;;5056881;28;20067;-75
2022/06/22 01:37:11;;;;;;;12.88;6.90;;;12.20;99.90;;;;;;5073920;28;20083;-75
2022/06/22 01:39:37;;;;;;;14.25;6.70;;;;;;;;;;5074066;28;20048;-75
2022/06/22 01:42:21;;;;;;;12.88;7.25;;;12.00;99.90;;;;;;5072692;28;20556;-75
2022/06/22 01:45:19;;;;;;;10.95;7.68;;;11.60;99.90;;;;;;5056008;28;20146;-76
2022/06/22 01:47:52;;;;;;;12.73;7.32;;;11.80;99.90;;;;;;5065118;28;20075;-75
2022/06/22 01:50:25;;;;;;;14.30;7.22;;;12.10;99.90;;;;;;5073242;28;20041;-75
2022/06/22 01:53:19;;;;;;;11.68;7.00;;;11.80;99.90;;;;;;5056094;28;20086;-76
2022/06/22 01:56:03;;;;;;;11.77;7.97;;;12.10;99.90;;;;;;5072923;28;20130;-75
2022/06/22 01:58:35;;;;;;;15.95;7.70;;;12.10;99.90;;;;;;5073540;28;20094;-75
2022/06/22 02:01:11;;;;;;;12.20;7.57;;;12.10;99.90;;;;;;5073842;28;20052;-75
2022/06/22 02:04:00;;;;;;;14.63;8.65;;;11.90;99.90;;;;;;5055967;28;20086;-75
2022/06/22 02:09:31;;;;;;;10.98;8.10;;;11.80;99.90;;;;;;5042107;28;20048;-75
2022/06/22 02:14:47;;;;;;;14.32;8.07;;;11.30;99.90;;;;;;5074696;28;20080;-76
2022/06/22 02:17:16;;;;;;;11.93;7.50;;;11.80;99.90;;;;;;5079953;28;20101;-75
2022/06/22 02:19:42;;;;;;;9.57;6.80;;;11.20;99.90;;;;;;5096097;28;20043;-75
2022/06/22 02:22:12;;;;;;;11.70;7.72;;;11.90;99.90;;;;;;5079557;28;20047;-76
2022/06/22 02:24:45;;;;;;;10.18;7.35;;;11.70;99.90;;;;;;5098669;28;20048;-75
2022/06/22 02:27:14;;;;;;;12.18;7.55;;;11.60;99.90;;;;;;5093635;28;20056;-75
2022/06/22 02:29:46;;;;;;;12.63;8.00;;;11.50;99.90;;;;;;5093848;28;20078;-75
2022/06/22 02:32:20;;;;;;;11.25;7.88;;;11.40;99.90;;;;;;5093360;28;20060;-75
2022/06/22 02:34:51;;;;;;;12.38;7.78;;;11.40;99.90;;;;;;5075183;28;20063;-75
2022/06/22 02:37:20;;;;;;;13.63;8.30;;;11.40;99.90;;;;;;5075577;28;20395;-75
2022/06/22 02:39:53;;;;;;;11.07;7.88;;;11.00;99.90;;;;;;5075313;28;20059;-75
2022/06/22 02:45:07;;;;;;;14.95;8.52;;;11.40;99.90;;;;;;5061205;28;20486;-75
2022/06/22 02:48:07;;;;;;;12.75;8.63;;;11.00;99.90;;;;;;5093860;28;20562;-76
2022/06/22 02:50:51;;;;;;;12.05;8.30;;;11.50;99.90;;;;;;5093545;28;20574;-76
2022/06/22 02:53:28;;;;;;;14.93;8.35;;;11.50;99.90;;;;;;5093074;28;20124;-75
2022/06/22 02:55:55;;;;;;;12.10;8.63;;;11.30;99.90;;;;;;5093373;28;20052;-75
2022/06/22 02:58:34;;;;;;;11.55;8.40;;;11.30;99.90;;;;;;5093457;28;20056;-75
2022/06/22 03:01:12;;;;;;;13.00;8.40;;;11.20;99.90;;;;;;5093244;28;20441;-75
2022/06/22 03:03:42;;;;;;;9.48;7.88;;;11.30;99.90;;;;;;5093205;28;20502;-74
2022/06/22 03:06:10;;;;;;;13.57;8.85;;;11.10;99.90;;;;;;5075012;28;20075;-75
2022/06/22 03:08:36;;;;;;;13.70;8.93;;;;;;;;;;5058667;28;20052;-76
2022/06/22 03:11:05;;;;;;;14.10;8.60;;;11.20;99.90;;;;;;5075549;28;20052;-75
2022/06/22 03:13:41;;;;;;;15.70;8.85;;;11.10;99.90;;;;;;5042266;28;20088;-76
2022/06/22 03:16:22;;;;;;;13.18;9.85;;;11.10;99.90;;;;;;5093918;28;20040;-76
2022/06/22 03:18:50;;;;;;;14.52;9.57;;;;;;;;;;5096058;28;20044;-76
2022/06/22 03:21:17;;;;;;;14.82;9.20;;;11.40;99.90;;;;;;5075583;28;20044;-76
2022/06/22 03:23:57;;;;;;;12.13;9.40;;;11.10;99.90;;;;;;5058274;28;20056;-76
2022/06/22 03:26:34;;;;;;;12.75;10.13;;;11.10;99.90;;;;;;5092978;28;20057;-76
2022/06/22 03:29:27;;;;;;;14.07;9.95;;;10.30;99.90;;;;;;5075502;28;20052;-76
2022/06/22 03:32:08;;;;;;;13.70;10.15;;;11.20;99.90;;;;;;5047933;28;20127;-76
2022/06/22 03:34:51;;;;;;;15.25;10.90;;;11.10;99.90;;;;;;5075366;28;20084;-76
2022/06/22 03:37:24;;;;;;;15.98;9.93;;;11.00;99.90;;;;;;5092487;28;20062;-76
2022/06/22 03:39:56;;;;;;;19.38;12.10;;;11.00;99.90;;;;;;5093062;28;20052;-76
2022/06/22 03:42:31;;;;;;;20.05;12.15;;;11.10;99.90;;;;;;5074595;28;20068;-76
2022/06/22 03:45:04;;;;;;;;;;;11.10;99.90;;;;;;5059203;28;20490;-76
2022/06/22 03:47:58;;;;;;;17.38;11.27;;;10.90;99.90;;;;;;5092656;28;20007;-76
2022/06/22 03:50:36;;;;;;;14.32;10.07;;;11.90;99.90;;;;;;5076451;28;20079;-76
2022/06/22 03:53:28;;;;;;;16.58;11.57;;;10.90;99.90;;;;;;5078246;28;20098;-76
2022/06/22 03:55:59;;;;;;;14.93;10.02;;;10.90;99.90;;;;;;5096356;28;20508;-76
2022/06/22 03:58:25;;;;;;;15.88;10.95;;;;;;;;;;5061207;28;20130;-76
2022/06/22 04:00:51;;;;;;;16.52;11.38;;;;;;;;;;5096070;28;20084;-76
2022/06/22 04:03:19;;;;;;;13.43;8.95;;;11.40;99.90;;;;;;5077730;28;20056;-76
2022/06/22 04:05:53;;;;;;;13.25;8.45;;;11.90;99.90;;;;;;5077926;28;20102;-76
2022/06/22 04:08:32;;;;;;;14.80;10.98;;;13.50;99.90;;;;;;5095763;28;20052;-75
2022/06/22 04:11:34;;;;;;;14.45;10.50;;;14.20;99.90;;;;;;5096095;28;20067;-75
2022/06/22 04:14:10;;;;;;;13.60;10.07;;;14.50;99.90;;;;;;5096132;28;20048;-76
2022/06/22 04:16:41;;;;;;;13.60;10.18;;;14.90;99.90;;;;;;5095853;28;20048;-75
2022/06/22 04:19:31;;;;;;;14.95;11.18;;;14.90;99.90;;;;;;5096089;28;20040;-75
2022/06/22 04:22:07;;;;;;;13.13;10.25;;;14.70;99.90;;;;;;5077828;28;20127;-75
2022/06/22 04:24:49;;;;;;;16.13;10.07;;;14.60;99.90;;;;;;5077744;28;20113;-75
2022/06/22 04:27:27;;;;;;;15.38;11.18;;;14.50;99.90;;;;;;5077336;28;20055;-75
2022/06/22 04:30:03;;;;;;;15.90;10.30;;;14.50;99.90;;;;;;5077525;28;20402;-75
2022/06/22 04:32:34;;;;;;;14.25;10.90;;;14.10;99.90;;;;;;5077408;28;20498;-75
2022/06/22 04:35:32;;;;;;;11.40;9.98;;;15.10;99.90;;;;;;5060825;28;20060;-76
2022/06/22 04:38:23;;;;;;;13.05;9.70;;;15.80;99.90;;;;;;5089491;28;20048;-75
2022/06/22 04:41:19;;;;;;;13.65;10.88;;;16.70;99.90;;;;;;5077895;28;20421;-76
2022/06/22 04:43:46;;;;;;;;;;;16.70;99.90;;;;;;5095770;28;20063;-76
2022/06/22 04:46:20;;;;;;;14.20;9.25;;;18.20;99.90;;;;;;5076974;28;20317;-75
2022/06/22 04:48:49;;;;;;;10.55;8.63;;;19.00;99.90;;;;;;5077237;28;20044;-76
2022/06/22 04:51:27;;;;;;;11.05;8.75;;;18.90;99.90;;;;;;5095551;28;20123;-76
2022/06/22 04:54:00;;;;;;;11.20;8.15;;;20.00;99.90;;;;;;5076855;28;20131;-76
2022/06/22 04:56:33;;;;;;;10.32;8.40;;;20.60;99.90;;;;;;5077043;28;20052;-76
2022/06/22 04:59:00;;;;;;;11.68;8.68;;;21.10;99.90;;;;;;5094989;28;20055;-76
2022/06/22 05:01:33;;;;;;;11.13;8.02;;;21.10;99.90;;;;;;5075295;28;20487;-76
2022/06/22 05:04:07;;;;;;;8.93;7.22;;;22.10;99.90;;;;;;5060370;28;20387;-76
2022/06/22 05:06:48;;;;;;;9.93;7.28;;;22.20;99.90;;;;;;5076937;28;20355;-76
2022/06/22 05:09:42;;;;;;;9.60;7.97;;;22.90;98.70;;;;;;5095514;28;20133;-76
2022/06/22 05:12:18;;;;;;;9.80;7.40;;;23.80;94.70;;;;;;5052661;28;20054;-76
2022/06/22 05:14:44;;;;;;;10.07;7.38;;;24.60;93.10;;;;;;5076617;28;20496;-78
2022/06/22 05:17:38;;;;;;;9.25;7.93;;;24.90;90.00;;;;;;5077005;28;20463;-79
2022/06/22 05:20:11;;;;;;;9.45;7.63;;;25.50;83.30;;;;;;5094949;28;20048;-78
2022/06/22 05:26:27;;;;;;;9.63;7.03;;;26.50;70.60;;;;;;5096463;28;20047;-83
2022/06/22 05:29:04;;;;;;;11.63;7.72;;;26.90;71.80;;;;;;5093570;28;20372;-78
2022/06/22 05:31:35;;;;;;;10.07;6.75;;;27.70;74.60;;;;;;5076150;28;20131;-78
2022/06/22 05:34:06;;;;;;;10.75;6.72;;;27.70;65.70;;;;;;5093946;28;20056;-78
2022/06/22 05:36:37;;;;;;;9.25;7.28;;;28.10;65.00;;;;;;5075095;28;20079;-79
2022/06/22 05:39:05;;;;;;;12.63;6.28;;;28.50;63.20;;;;;;5093696;28;20052;-78
2022/06/22 05:41:36;;;;;;;8.80;6.80;;;28.90;61.20;;;;;;5075440;28;20056;-79
2022/06/22 05:44:07;;;;;;;9.88;7.38;;;29.00;58.30;;;;;;5097550;28;20048;-81
2022/06/22 05:46:33;;;;;;;8.73;7.03;;;28.90;64.30;;;;;;5096447;28;20619;-77
2022/06/22 05:48:59;;;;;;;14.13;7.30;;;29.10;58.10;;;;;;5094089;28;20517;-78
2022/06/22 05:52:00;;;;;;;13.13;6.18;;;29.80;65.00;;;;;;5058099;28;20466;-81
2022/06/22 05:54:48;;;;;;;10.27;6.72;;;29.60;56.30;;;;;;5059751;28;20501;-83
2022/06/22 05:57:35;;;;;;;9.40;6.18;;;29.80;54.60;;;;;;5073959;28;20135;-78
2022/06/22 06:00:05;;;;;;;9.23;6.13;;;30.00;62.40;;;;;;5084213;28;20051;-79
2022/06/22 06:02:55;;;;;;;9.82;6.03;;;30.70;61.70;;;;;;5074097;28;20052;-78
2022/06/22 06:05:34;;;;;;;10.27;6.47;;;30.70;52.80;;;;;;5074635;28;20060;-77
2022/06/22 06:08:09;;;;;;;10.70;6.00;;;30.60;52.50;;;;;;5072239;28;20134;-77
2022/06/22 06:14:08;;;;;;;10.20;5.85;;;30.60;59.70;;;;;;5065682;28;20138;-78
2022/06/22 06:16:47;;;;;;;12.68;5.45;;;31.80;60.40;;;;;;5057034;28;20490;-78
2022/06/22 06:19:18;;;;;;;8.73;5.05;;;30.90;56.40;;;;;;5091155;28;20094;-78
2022/06/22 06:21:44;;;;;;;6.93;4.43;;;30.10;56.40;;;;;;5090684;28;20469;-77
2022/06/22 06:24:18;;;;;;;8.95;4.72;;;30.50;49.30;;;;;;5056571;28;20055;-78
2022/06/22 06:29:58;;;;;;;9.32;4.55;;;29.80;49.00;;;;;;5086339;28;20079;-78
2022/06/22 06:32:50;;;;;;;8.57;4.30;;;29.30;50.70;;;;;;5091887;28;20052;-79
2022/06/22 06:35:55;;;;;;;10.98;4.38;;;29.20;51.30;;;;;;5074401;28;20048;-82
2022/06/22 06:38:27;;;;;;;11.23;4.88;;;29.40;50.20;;;;;;5081971;28;20413;-77
2022/06/22 06:41:03;;;;;;;8.75;4.13;;;29.10;58.30;;;;;;5092419;28;20044;-77
2022/06/22 06:43:47;;;;;;;10.07;4.15;;;29.10;57.40;;;;;;5092160;28;20058;-79
2022/06/22 06:46:31;;;;;;;12.50;4.30;;;29.40;57.40;;;;;;5093840;28;20048;-81
2022/06/22 06:49:11;;;;;;;9.85;4.30;;;29.80;60.60;;;;;;5093306;28;20076;-77
2022/06/22 06:51:43;;;;;;;7.35;3.63;;;29.00;56.10;;;;;;5092382;28;20055;-77
2022/06/22 06:54:26;;;;;;;7.18;3.60;;;29.50;56.20;;;;;;5074946;28;20105;-85
2022/06/22 06:57:05;;;;;;;9.98;3.78;;;29.30;54.90;;;;;;5074399;28;20109;-77
2022/06/22 06:59:31;;;;;;;6.50;3.47;;;28.50;54.80;;;;;;5092137;28;20060;-79
2022/06/22 07:02:10;;;;;;;4.75;2.97;;;28.90;48.30;;;;;;5092971;28;20131;-80
2022/06/22 07:04:35;;;;;;;7.45;3.70;;;29.60;57.20;;;;;;5076869;28;20051;-83
2022/06/22 07:07:19;;;;;;;6.07;3.38;;;29.20;49.80;;;;;;5076247;28;20048;-85
2022/06/22 07:10:41;;;;;;;8.95;3.70;;;29.50;56.60;;;;;;5089189;28;20051;-89
2022/06/22 07:13:46;;;;;;;7.40;3.60;;;28.90;59.20;;;;;;5105512;28;20052;-81
2022/06/22 07:16:15;;;;;;;7.18;2.70;;;29.00;56.60;;;;;;5062898;28;20056;-82
2022/06/22 07:19:03;;;;;;;6.65;3.22;;;28.90;49.80;;;;;;5110815;28;20063;-86
2022/06/22 07:22:03;;;;;;;9.15;3.33;;;27.80;49.10;;;;;;5072752;28;20056;-85
2022/06/22 07:24:48;;;;;;;8.25;3.28;;;27.10;59.90;;;;;;4986389;28;20137;-83
2022/06/22 07:27:40;;;;;;;8.23;3.10;;;27.00;59.80;;;;;;4996589;28;20568;-82
2022/06/22 07:30:16;;;;;;;11.32;3.70;;;26.20;52.80;;;;;;4964834;28;20084;-83
2022/06/22 07:36:05;;;;;;;5.80;3.15;;;25.50;60.60;;;;;;4998240;28;20048;-82
2022/06/22 07:39:08;;;;;;;8.93;3.50;;;27.00;58.10;;;;;;4983124;28;20093;-82
2022/06/22 07:41:34;;;;;;;8.90;2.95;;;;;;;;;;4984529;28;20060;-81
2022/06/22 07:44:04;;;;;;;6.90;2.97;;;26.00;52.70;;;;;;4980882;28;20123;-80
2022/06/22 07:53:45;;;;;;;6.70;3.00;;;25.80;52.60;;;;;;5236853;22;20059;-63
2022/06/22 07:56:34;;;;;;;12.27;3.15;;;25.80;53.20;;;;;;5085989;28;20048;-62
2022/06/22 07:59:13;;;;;;;6.55;3.00;;;26.10;53.40;;;;;;5092136;28;20199;-61
2022/06/22 08:01:42;;;;;;;6.97;3.33;;;25.80;52.20;;;;;;5061174;28;20053;-61
2022/06/22 08:04:16;;;;;;;5.55;2.38;;;25.70;52.80;;;;;;5073172;28;20056;-61
2022/06/22 08:06:50;;;;;;;7.15;2.30;;;25.60;58.80;;;;;;5073696;28;20044;-61
2022/06/22 08:09:25;;;;;;;6.20;2.57;;;25.80;51.00;;;;;;5091928;28;20227;-61
2022/06/22 08:12:05;;;;;;;3.65;2.20;;;25.80;50.80;;;;;;5089360;28;20113;-61
2022/06/22 08:14:46;;;;;;;7.20;2.80;;;25.70;50.30;;;;;;5092222;28;20391;-61
2022/06/22 08:17:17;;;;;;;6.07;2.50;;;25.70;51.70;;;;;;5091984;28;20040;-61
2022/06/22 08:19:43;;;;;;;4.30;2.33;;;25.70;51.00;;;;;;5091344;28;20048;-62
2022/06/22 08:22:11;;;;;;;8.10;2.47;;;25.20;51.60;;;;;;5073725;28;20488;-62
2022/06/22 08:24:41;;;;;;;4.53;2.42;;;25.30;63.00;;;;;;5089103;28;20115;-61
2022/06/22 08:27:16;;;;;;;8.35;2.30;;;24.60;61.90;;;;;;5091351;28;20491;-61
2022/06/22 08:29:42;;;;;;;4.57;2.35;;;24.70;54.70;;;;;;5089285;28;20052;-62
2022/06/22 08:32:22;;;;;;;7.15;2.17;;;24.60;59.90;;;;;;5090469;28;20563;-62
2022/06/22 08:34:53;;;;;;;4.20;2.10;;;25.00;52.70;;;;;;5089557;28;20048;-62
2022/06/22 08:37:51;;;;;;;9.75;2.42;;;25.60;59.30;;;;;;5072829;28;20487;-62
2022/06/22 08:40:34;;;;;;;4.43;2.28;;;24.80;52.30;;;;;;5056082;28;20208;-63
2022/06/22 08:43:05;;;;;;;7.90;2.47;;;24.90;60.60;;;;;;5064926;28;20044;-62
2022/06/22 08:45:58;;;;;;;5.43;1.92;;;24.60;52.60;;;;;;5084203;28;20039;-62
2022/06/22 08:48:31;;;;;;;6.13;2.63;;;23.00;58.80;;;;;;5070444;28;20052;-62
2022/06/22 08:51:18;;;;;;;4.93;2.15;;;24.00;53.70;;;;;;5089927;28;20044;-62
2022/06/22 08:54:14;;;;;;;3.85;1.98;;;23.20;62.40;;;;;;5071910;28;20036;-62
2022/06/22 08:56:59;;;;;;;5.30;2.33;;;25.10;61.60;;;;;;5090604;28;20131;-62
2022/06/22 08:59:48;;;;;;;;;;;24.20;52.90;;;;;;5091557;28;20135;-62
2022/06/22 09:02:51;;;;;;;8.98;2.25;;;24.20;52.60;;;;;;5071814;28;20005;-62
2022/06/22 09:05:48;;;;;;;5.28;2.40;;;22.80;60.10;;;;;;5084356;28;20044;-62
2022/06/22 09:08:30;;;;;;;4.22;2.10;;;23.80;53.80;;;;;;5072877;28;20066;-62
2022/06/22 09:11:28;;;;;;;5.57;2.30;;;23.80;52.80;;;;;;5071237;28;20529;-63
2022/06/22 09:14:15;;;;;;;6.60;2.28;;;23.70;60.60;;;;;;5054552;28;20054;-62
2022/06/22 09:16:44;;;;;;;5.38;1.90;;;23.60;52.10;;;;;;5089933;28;20040;-62
2022/06/22 09:19:32;;;;;;;6.03;2.20;;;23.50;51.90;;;;;;5055393;28;20040;-63
2022/06/22 09:22:23;;;;;;;4.38;1.90;;;23.60;51.70;;;;;;5090086;28;20498;-62
2022/06/22 09:25:02;;;;;;;6.07;2.38;;;24.00;58.00;;;;;;5055569;28;20058;-63
2022/06/22 09:27:45;;;;;;;5.22;2.42;;;24.40;58.10;;;;;;5090298;28;20130;-63
2022/06/22 09:30:48;;;;;;;4.00;2.10;;;24.50;51.10;;;;;;5089981;28;20083;-62
2022/06/22 09:33:32;;;;;;;3.67;1.98;;;24.50;50.50;;;;;;5091635;28;20097;-63
2022/06/22 09:36:25;;;;;;;3.50;1.85;;;24.80;60.40;;;;;;5080127;28;20070;-63
2022/06/22 09:39:02;;;;;;;9.15;2.22;;;24.90;60.20;;;;;;5088843;28;20048;-63
2022/06/22 09:41:48;;;;;;;6.55;2.00;;;24.50;52.40;;;;;;5088880;28;20082;-63
2022/06/22 09:44:26;;;;;;;3.30;1.70;;;24.30;52.40;;;;;;5040127;28;20439;-63
2022/06/22 09:47:04;;;;;;;4.75;2.13;;;24.10;51.00;;;;;;5091140;28;20046;-63
2022/06/22 09:50:02;;;;;;;5.63;2.00;;;23.70;57.70;;;;;;5091122;28;20047;-63
2022/06/22 09:52:37;;;;;;;7.18;2.00;;;24.00;53.10;;;;;;5091495;28;20083;-62
2022/06/22 09:58:01;;;;;;;3.67;1.67;;;23.90;56.00;;;;;;5090384;28;20044;-63
2022/06/22 10:01:04;;;;;;;2.03;1.30;;;24.00;50.70;;;;;;5090192;28;20044;-63
2022/06/22 10:04:05;;;;;;;3.90;2.00;;;24.30;49.10;;;;;;5091210;28;20044;-63
2022/06/22 10:06:47;;;;;;;4.07;1.80;;;24.50;48.20;;;;;;5090286;28;20082;-63
2022/06/22 10:09:21;;;;;;;4.57;2.40;;;24.80;57.90;;;;;;5071944;28;20052;-63
2022/06/22 10:11:54;;;;;;;5.78;2.45;;;25.00;57.60;;;;;;5085185;28;20128;-63
2022/06/22 10:14:46;;;;;;;5.32;2.30;;;25.00;51.50;;;;;;5088521;28;20052;-63
2022/06/22 10:17:23;;;;;;;5.65;2.10;;;25.10;51.30;;;;;;5090266;28;20590;-63
2022/06/22 10:19:49;;;;;;;5.90;2.20;;;25.20;50.80;;;;;;5089476;28;20494;-63
2022/06/22 10:22:48;;;;;;;7.95;2.20;;;25.30;50.50;;;;;;5090414;28;20039;-63
2022/06/22 10:25:32;;;;;;;3.90;2.10;;;25.10;48.80;;;;;;5090233;28;20052;-63
2022/06/22 10:28:23;;;;;;;6.18;2.15;;;25.00;50.60;;;;;;5089446;28;20486;-63
2022/06/22 10:31:14;;;;;;;6.93;2.30;;;25.10;51.40;;;;;;5071677;28;20399;-63
2022/06/22 10:34:01;;;;;;;3.60;2.10;;;25.10;49.20;;;;;;5070124;28;20044;-63
2022/06/22 10:36:45;;;;;;;3.30;1.80;;;25.00;49.00;;;;;;5069974;28;20127;-63
2022/06/22 10:39:19;;;;;;;3.67;2.08;;;24.70;47.70;;;;;;5063045;28;20349;-63
2022/06/22 10:47:38;;;;;;;4.72;2.13;;;24.20;49.40;;;;;;5090089;28;20047;-63
2022/06/22 10:50:10;;;;;;;4.88;2.15;;;24.50;50.80;;;;;;5089541;28;20056;-63
2022/06/22 10:53:07;;;;;;;5.78;2.20;;;25.10;55.50;;;;;;5090026;28;20059;-63
2022/06/22 10:55:44;;;;;;;4.72;2.20;;;24.80;55.30;;;;;;5055259;28;20055;-63
2022/06/22 10:58:48;;;;;;;5.60;2.10;;;25.10;49.80;;;;;;5089628;28;20054;-63
2022/06/22 11:01:34;;;;;;;3.97;1.98;;;25.20;49.30;;;;;;5093762;28;20066;-63
2022/06/22 11:04:18;;;;;;;;;;;25.10;49.20;;;;;;5076434;28;20106;-64
2022/06/22 11:06:55;;;;;;;6.82;2.25;;;25.30;49.30;;;;;;5093208;28;19963;-63
2022/06/22 11:09:59;;;;;;;4.80;2.10;;;25.20;49.20;;;;;;5093959;28;20048;-63
2022/06/22 11:12:52;;;;;;;6.55;2.20;;;24.10;52.90;;;;;;5093649;28;20083;-63
2022/06/22 11:15:35;;;;;;;4.93;2.13;;;24.80;47.90;;;;;;5058701;28;20058;-63
2022/06/22 11:18:12;;;;;;;3.28;1.90;;;24.70;47.60;;;;;;5092978;28;20139;-63
2022/06/22 11:20:45;;;;;;;5.65;2.42;;;24.60;46.90;;;;;;5058572;28;20064;-63
2022/06/22 11:23:29;;;;;;;5.25;1.90;;;24.50;46.10;;;;;;5089580;28;20036;-63
2022/06/22 11:33:16;;;;;;;3.08;1.85;;;24.50;55.00;;;;;;5009041;28;20038;-63
2022/06/22 11:35:44;;;;;;;6.13;1.83;;;24.80;48.00;;;;;;4998536;28;20432;-63
2022/06/22 11:38:28;;;;;;;3.95;1.83;;;25.00;49.10;;;;;;4985054;28;20504;-63
2022/06/22 11:41:05;;;;;;;5.90;2.20;;;25.00;47.80;;;;;;4995885;28;20137;-64
2022/06/22 11:44:11;;;;;;;4.72;2.20;;;25.10;47.10;;;;;;4971956;28;20139;-64
2022/06/22 11:46:41;;;;;;;5.32;2.08;;;25.00;46.80;;;;;;4978037;28;20093;-63
2022/06/22 11:49:18;;;;;;;3.88;1.90;;;25.20;46.60;;;;;;5001551;28;20037;-63
2022/06/22 11:52:24;;;;;;;5.70;1.90;;;25.20;45.50;;;;;;4990307;28;20056;-63
2022/06/22 11:55:17;;;;;;;4.72;2.00;;;25.40;45.90;;;;;;5001019;28;20093;-64
2022/06/22 11:57:57;;;;;;;8.68;2.03;;;25.70;45.30;;;;;;4998709;28;20054;-63
2022/06/22 12:00:41;;;;;;;5.32;2.08;;;25.70;45.70;;;;;;5005016;28;20056;-63
2022/06/22 12:03:19;;;;;;;6.97;2.17;;;25.40;44.40;;;;;;5047595;28;20048;-63
2022/06/22 12:05:54;;;;;;;6.10;2.08;;;25.30;45.30;;;;;;5073219;28;20040;-64
2022/06/22 12:08:37;;;;;;;19.38;3.08;;;25.30;44.30;;;;;;5092333;28;20048;-64
2022/06/22 12:11:18;;;;;;;3.78;1.77;;;25.70;48.50;;;;;;5088435;28;20091;-64
2022/06/22 12:17:11;;;;;;;2.55;1.65;;;26.30;54.00;;;;;;5088920;28;20388;-64
2022/06/22 12:20:01;;;;;;;5.75;2.10;;;26.30;45.90;;;;;;4972915;28;20632;-62
2022/06/22 12:22:40;;;;;;;3.85;2.00;;;26.10;43.10;;;;;;4987466;28;20075;-62
2022/06/22 12:25:15;;;;;;;4.88;1.85;;;26.10;44.50;;;;;;4990038;28;20563;-62
2022/06/22 12:27:54;;;;;;;4.07;1.90;;;26.10;44.10;;;;;;4989368;28;20050;-61
2022/06/22 12:30:38;;;;;;;7.50;2.08;;;27.00;49.80;;;;;;4988961;28;20104;-64
2022/06/22 12:33:28;;;;;;;4.97;1.77;;;25.90;43.40;;;;;;4989303;28;20101;-64
2022/06/22 12:36:14;;;;;;;4.18;1.90;;;26.10;43.40;;;;;;4970578;28;20525;-64
2022/06/22 12:39:18;;;;;;;4.60;2.08;;;26.30;43.00;;;;;;4987431;28;20077;-64
2022/06/22 12:42:07;;;;;;;4.28;1.90;;;26.50;43.30;;;;;;4987650;28;20042;-64
2022/06/22 12:44:57;;;;;;;4.32;1.90;;;26.40;41.60;;;;;;4989398;28;20039;-64
2022/06/22 12:47:28;;;;;;;6.28;2.17;;;26.40;49.10;;;;;;4957425;28;20105;-64
2022/06/22 12:50:34;;;;;;;5.22;1.70;;;26.20;41.30;;;;;;4988788;28;20038;-64
2022/06/22 12:53:06;;;;;;;4.80;1.70;;;26.20;40.90;;;;;;4930194;29;20060;-64
2022/06/22 12:55:41;;;;;;;4.22;1.80;;;26.30;41.90;;;;;;4933319;28;20391;-64
2022/06/22 12:58:10;;;;;;;;;;;26.40;40.70;;;;;;4987930;28;20050;-64
2022/06/22 13:00:37;;;;;;;2.88;1.73;;;26.30;40.40;;;;;;4988874;28;19990;-64
2022/06/22 13:03:03;;;;;;;4.88;1.80;;;26.30;41.30;;;;;;4985851;28;20166;-63
2022/06/22 13:05:33;;;;;;;4.22;1.73;;;26.40;41.20;;;;;;4989788;28;20109;-63
2022/06/22 13:08:07;;;;;;;2.80;1.60;;;26.70;42.20;;;;;;4973370;28;20062;-61
2022/06/22 13:10:40;;;;;;;3.83;1.90;;;26.90;42.10;;;;;;4987045;28;20042;-61
2022/06/22 13:13:40;;;;;;;6.10;1.70;;;27.20;41.90;;;;;;4988566;28;20057;-61
2022/06/22 13:16:39;;;;;;;5.28;1.58;;;27.50;41.70;;;;;;4988342;28;20058;-61
2022/06/22 13:19:45;;;;;;;6.47;1.80;;;27.80;41.60;;;;;;4988864;28;20110;-61
2022/06/22 13:22:36;;;;;;;4.28;2.08;;;27.90;41.10;;;;;;4986785;28;20042;-61
2022/06/22 13:25:08;;;;;;;2.45;1.80;;;27.70;40.10;;;;;;4972379;28;20113;-61
2022/06/22 13:28:06;;;;;;;6.32;1.95;;;27.60;41.00;;;;;;5067973;28;20047;-62
2022/06/22 13:30:41;;;;;;;2.90;1.80;;;27.60;40.60;;;;;;5090402;28;20058;-61
2022/06/22 13:33:13;;;;;;;8.50;1.80;;;27.50;40.40;;;;;;5088666;28;20051;-61
2022/06/22 13:35:44;;;;;;;2.72;1.60;;;27.30;40.30;;;;;;5087903;28;20048;-61
2022/06/22 13:38:37;;;;;;;2.58;1.60;;;27.20;39.80;;;;;;5071425;28;20403;-61
2022/06/22 13:41:18;;;;;;;4.85;1.77;;;27.10;39.70;;;;;;5069485;28;20048;-63
2022/06/22 13:44:05;;;;;;;2.92;1.73;;;27.20;39.20;;;;;;5089570;28;20105;-63
2022/06/22 13:46:53;;;;;;;4.10;1.70;;;27.20;39.80;;;;;;5089956;28;20433;-63
2022/06/22 13:49:27;;;;;;;5.03;1.83;;;27.30;39.60;;;;;;5088960;28;20653;-63
2022/06/22 13:52:10;;;;;;;2.85;1.60;;;27.50;40.80;;;;;;5069301;28;20391;-63
2022/06/22 13:54:53;;;;;;;2.50;1.65;;;27.90;41.30;;;;;;5089374;28;20506;-63
2022/06/22 13:57:24;;;;;;;2.53;1.55;;;28.00;41.50;;;;;;5090514;28;20115;-63
2022/06/22 14:00:05;;;;;;;8.15;1.90;;;28.00;40.50;;;;;;5089085;28;20507;-63
2022/06/22 14:02:37;;;;;;;5.22;1.85;;;27.80;39.80;;;;;;5071313;28;20050;-64
2022/06/22 14:05:22;;;;;;;7.18;1.70;;;27.50;39.70;;;;;;5088682;28;20036;-63
2022/06/22 14:08:03;;;;;;;2.00;1.60;;;27.50;40.90;;;;;;5071694;28;20059;-63
2022/06/22 14:10:49;;;;;;;4.57;1.73;;;27.60;40.70;;;;;;5089594;28;20127;-63
2022/06/22 14:13:33;;;;;;;6.40;1.70;;;27.50;40.30;;;;;;5071046;28;20078;-63
2022/06/22 14:16:16;;;;;;;5.13;1.70;;;27.60;41.60;;;;;;5070937;28;20455;-63
2022/06/22 14:19:07;;;;;;;3.17;1.83;;;27.70;39.50;;;;;;5080225;28;20051;-63
2022/06/22 14:21:48;;;;;;;3.70;2.00;;;27.50;40.20;;;;;;5090068;28;20047;-61
2022/06/22 14:24:29;;;;;;;6.05;2.03;;;27.40;40.10;;;;;;5089362;28;20067;-63
2022/06/22 14:27:26;;;;;;;4.80;1.90;;;27.30;41.00;;;;;;5089337;28;20089;-63
2022/06/22 14:30:01;;;;;;;5.65;2.00;;;27.60;50.00;;;;;;5089248;28;20052;-61
2022/06/22 14:32:54;;;;;;;6.53;2.08;;;27.40;43.00;;;;;;5089585;28;20466;-61
2022/06/22 14:35:43;;;;;;;5.38;2.30;;;27.60;44.50;;;;;;5069453;28;20438;-61
2022/06/22 14:38:40;;;;;;;5.60;2.22;;;27.70;45.90;;;;;;5089399;28;20148;-62
2022/06/22 14:41:12;;;;;;;5.45;2.20;;;27.70;44.30;;;;;;5067016;28;20051;-62
2022/06/22 14:44:12;;;;;;;5.97;2.38;;;27.40;44.40;;;;;;5070908;28;20051;-61